Terminal Aerodrome Forecast
Issued by NWS Wichita, KS

Home | Current Version | Previous Version | Text Only | Print | Product List | Glossary On
Versions: 1 2 3 4 5 6 7 8 9 10 11 12 13 14 15 16 17 18 19 20 21 22 23 24 25 26 27
000
FTUS43 KICT 221216 AAA
TAFICT
TAF AMD
KICT 221216Z 2212/2312 17008KT 1SM BR BKN004
      TEMPO 2212/2216 2SM -SHRA BR BKN006
     FM222100 18014KT 6SM BR VCSH SCT007 OVC015
     FM230000 17013KT 1/2SM FG OVC004=

USA.gov is the U.S. government's official web portal to all federal, state and local government web resources and services.